Time;durP1;ratioP1;P1;durP2;ratioP2;P2;SDS_P1;SDS_P2;PMS_P1;PMS_P2;Temp;Humidity;BMP_temperature;BMP_pressure;BME280_temperature;BME280_humidity;BME280_pressure;Samples;Min_cycle;Max_cycle;Signal;HPM_P1;HPM_P2
2023/02/02 00:02:00;;;;;;;14.27;2.50;;;2.30;99.90;;;;;;4155404;28;20452;-76
2023/02/02 00:04:02;;;;;;;22.50;3.27;;;2.30;99.90;;;;;;4150705;28;20492;-76
2023/02/02 00:06:08;;;;;;;9.77;2.73;;;2.30;99.90;;;;;;4153818;28;20527;-77
2023/02/02 00:08:10;;;;;;;19.13;2.63;;;2.30;99.90;;;;;;4150585;28;20478;-76
2023/02/02 00:10:12;;;;;;;23.17;2.90;;;2.40;99.90;;;;;;4152151;28;20493;-76
2023/02/02 00:12:14;;;;;;;13.10;2.70;;;2.40;99.90;;;;;;4149767;28;20497;-76
2023/02/02 00:14:16;;;;;;;14.70;3.03;;;2.40;99.90;;;;;;4166557;28;20829;-76
2023/02/02 00:16:34;;;;;;;15.43;2.63;;;2.40;99.90;;;;;;4151146;28;20560;-76
2023/02/02 00:18:48;;;;;;;;;;;;;;;;;;;;;
2023/02/02 00:21:26;;;;;;;16.77;2.70;;;2.50;99.90;;;;;;4168631;28;20468;-75
2023/02/02 00:23:28;;;;;;;12.23;2.83;;;2.40;99.90;;;;;;4155172;28;20469;-76
2023/02/02 00:29:48;;;;;;;15.73;2.43;;;2.40;99.90;;;;;;4055865;29;20590;-76
2023/02/02 00:45:52;;;;;;;9.47;2.33;;;2.50;99.90;;;;;;4009510;29;20464;-76
2023/02/02 00:47:54;;;;;;;15.00;2.43;;;2.40;99.90;;;;;;4113772;28;20546;-76
2023/02/02 00:49:56;;;;;;;11.77;3.27;;;2.40;99.90;;;;;;4157631;28;20469;-76
2023/02/02 00:51:59;;;;;;;23.67;2.87;;;2.40;99.90;;;;;;4155272;28;20549;-76
2023/02/02 00:54:03;;;;;;;11.07;2.47;;;2.40;99.90;;;;;;4156443;28;20463;-76
2023/02/02 00:56:05;;;;;;;12.30;2.43;;;2.50;99.90;;;;;;4157507;28;20950;-76
2023/02/02 00:58:07;;;;;;;16.00;2.87;;;2.50;99.90;;;;;;4153337;28;20513;-77
2023/02/02 01:00:13;;;;;;;15.30;3.00;;;2.40;99.90;;;;;;4156339;28;20509;-76
2023/02/02 01:02:15;;;;;;;18.60;2.20;;;2.50;99.90;;;;;;4153060;28;20520;-76
2023/02/02 01:04:17;;;;;;;13.43;1.80;;;2.50;99.90;;;;;;4161929;28;20453;-75
2023/02/02 01:06:19;;;;;;;14.67;2.00;;;2.50;99.90;;;;;;4158015;28;21162;-76
2023/02/02 01:08:21;;;;;;;12.47;1.93;;;2.60;99.90;;;;;;4155937;28;20574;-76
2023/02/02 01:10:24;;;;;;;9.93;2.10;;;2.50;99.90;;;;;;4162144;28;20478;-76
2023/02/02 01:12:26;;;;;;;13.10;2.20;;;2.60;99.90;;;;;;4152849;28;21685;-76
2023/02/02 01:14:28;;;;;;;12.77;2.57;;;2.60;99.90;;;;;;4157100;28;21021;-76
2023/02/02 01:16:30;;;;;;;9.90;2.00;;;2.50;99.90;;;;;;4153038;28;20453;-76
2023/02/02 01:18:33;;;;;;;9.37;2.07;;;2.60;99.90;;;;;;4154463;28;20558;-76
2023/02/02 01:20:34;;;;;;;19.90;2.20;;;2.60;99.90;;;;;;4161728;28;20469;-76
2023/02/02 01:22:37;;;;;;;12.47;1.80;;;2.60;99.90;;;;;;4157209;28;20560;-76
2023/02/02 01:24:39;;;;;;;6.53;1.70;;;2.60;99.90;;;;;;4155122;28;20453;-77
2023/02/02 01:26:42;;;;;;;19.50;2.20;;;2.60;99.90;;;;;;4155342;28;20493;-77
2023/02/02 01:28:45;;;;;;;10.83;1.77;;;2.60;99.90;;;;;;4154017;28;20469;-77
2023/02/02 01:30:47;;;;;;;14.80;2.00;;;2.60;99.90;;;;;;4169335;28;20461;-77
2023/02/02 01:32:49;;;;;;;13.50;2.00;;;2.60;99.90;;;;;;4152801;28;20456;-76
2023/02/02 01:34:51;;;;;;;9.57;1.87;;;2.60;99.90;;;;;;4153903;28;20466;-75
2023/02/02 01:36:53;;;;;;;5.80;1.80;;;2.60;99.90;;;;;;4153560;28;20970;-77
2023/02/02 01:38:55;;;;;;;10.67;1.83;;;2.60;99.90;;;;;;4151961;28;20537;-76
2023/02/02 01:40:57;;;;;;;10.27;1.80;;;2.60;99.90;;;;;;4155268;28;20462;-76
2023/02/02 01:43:00;;;;;;;13.20;1.93;;;2.60;99.90;;;;;;4154011;28;20488;-77
2023/02/02 01:45:17;;;;;;;12.90;2.30;;;2.60;99.90;;;;;;4156461;28;20466;-76
2023/02/02 01:47:20;;;;;;;16.13;2.10;;;2.60;99.90;;;;;;4152884;28;21255;-77
2023/02/02 01:49:22;;;;;;;11.83;1.90;;;2.60;99.90;;;;;;4152470;28;21154;-75
2023/02/02 01:51:32;;;;;;;9.20;2.07;;;2.60;99.90;;;;;;4152366;28;20523;-76
2023/02/02 01:53:34;;;;;;;11.40;1.83;;;2.50;99.90;;;;;;4157043;28;20998;-75
2023/02/02 01:55:39;;;;;;;9.13;1.80;;;2.50;99.90;;;;;;4152035;28;20500;-76
2023/02/02 01:57:45;;;;;;;11.97;1.50;;;2.50;99.90;;;;;;4156686;28;20481;-76
2023/02/02 01:59:51;;;;;;;12.40;1.90;;;2.50;99.90;;;;;;4158229;28;20532;-76
2023/02/02 02:01:54;;;;;;;8.07;1.77;;;2.50;99.90;;;;;;4151595;28;20523;-76
2023/02/02 02:03:56;;;;;;;13.80;2.23;;;2.50;99.90;;;;;;4150209;28;20573;-76
2023/02/02 02:06:04;;;;;;;15.13;1.90;;;2.50;99.90;;;;;;4156468;28;20462;-76
2023/02/02 02:08:13;;;;;;;14.23;1.83;;;2.60;99.90;;;;;;4152350;28;20527;-76
2023/02/02 02:10:17;;;;;;;10.37;1.83;;;2.50;99.90;;;;;;4155870;28;20554;-75
2023/02/02 02:12:19;;;;;;;10.43;1.57;;;2.50;99.90;;;;;;4154469;28;20523;-76
2023/02/02 02:17:07;;;;;;;11.20;1.93;;;2.50;99.90;;;;;;4134897;28;20505;-76
2023/02/02 02:19:25;;;;;;;13.03;1.83;;;2.50;99.90;;;;;;4148300;28;20522;-76
2023/02/02 02:27:05;;;;;;;10.97;2.47;;;2.50;99.90;;;;;;4154394;28;20453;-75
2023/02/02 02:29:34;;;;;;;9.87;1.50;;;2.50;99.90;;;;;;4153547;28;21008;-75
2023/02/02 02:32:05;;;;;;;12.33;1.80;;;2.50;99.90;;;;;;4154463;28;20964;-76
2023/02/02 02:34:14;;;;;;;11.03;1.80;;;2.50;99.90;;;;;;4152371;28;20458;-75
2023/02/02 02:36:22;;;;;;;10.40;1.83;;;2.50;99.90;;;;;;4152987;28;20960;-76
2023/02/02 02:38:31;;;;;;;11.50;1.83;;;2.50;99.90;;;;;;4152139;28;20495;-76
2023/02/02 02:40:37;;;;;;;7.83;1.53;;;2.60;99.90;;;;;;4154199;28;20932;-75
2023/02/02 02:42:43;;;;;;;14.47;2.20;;;2.60;99.90;;;;;;4153497;28;20553;-76
2023/02/02 02:44:47;;;;;;;15.27;2.23;;;2.60;99.90;;;;;;4154734;28;20908;-76
2023/02/02 02:46:51;;;;;;;10.33;2.23;;;2.60;99.90;;;;;;4149197;28;20566;-76
2023/02/02 02:48:56;;;;;;;11.00;1.50;;;2.60;99.90;;;;;;4150569;28;20486;-76
2023/02/02 02:51:06;;;;;;;14.20;2.10;;;2.70;99.90;;;;;;4157011;28;20961;-76
2023/02/02 02:53:12;;;;;;;13.93;2.17;;;2.70;99.90;;;;;;4151678;28;20468;-76
2023/02/02 02:55:15;;;;;;;15.80;1.67;;;2.70;99.90;;;;;;4153101;28;20472;-76
2023/02/02 02:57:35;;;;;;;11.73;1.60;;;2.70;99.90;;;;;;4152082;28;20550;-75
2023/02/02 02:59:44;;;;;;;14.30;1.77;;;2.70;99.90;;;;;;4154710;28;20532;-75
2023/02/02 03:01:56;;;;;;;13.20;2.10;;;2.80;99.90;;;;;;4149212;28;20563;-76
2023/02/02 03:04:06;;;;;;;9.70;1.43;;;2.80;99.90;;;;;;4152007;28;20562;-76
2023/02/02 03:06:14;;;;;;;6.30;1.47;;;2.80;99.90;;;;;;4151691;28;20464;-76
2023/02/02 03:08:23;;;;;;;11.10;2.00;;;2.80;99.90;;;;;;4152172;28;20518;-76
2023/02/02 03:10:29;;;;;;;9.17;2.33;;;2.80;99.90;;;;;;4154932;28;20473;-76
2023/02/02 03:12:31;;;;;;;15.13;2.17;;;2.80;99.90;;;;;;4151958;28;20457;-76
2023/02/02 03:14:35;;;;;;;9.57;1.43;;;2.80;99.90;;;;;;4154127;28;20987;-75
2023/02/02 03:16:37;;;;;;;13.80;2.00;;;2.80;99.90;;;;;;4151888;28;20542;-76
2023/02/02 03:18:41;;;;;;;13.40;2.07;;;2.80;99.90;;;;;;4149374;28;20486;-75
2023/02/02 03:20:45;;;;;;;11.00;1.67;;;2.80;99.90;;;;;;4156135;28;20469;-76
2023/02/02 03:22:46;;;;;;;13.83;1.60;;;2.80;99.90;;;;;;4151870;28;21447;-76
2023/02/02 03:24:48;;;;;;;8.33;1.60;;;2.80;99.90;;;;;;4152926;28;20773;-76
2023/02/02 03:26:51;;;;;;;12.10;1.87;;;2.80;99.90;;;;;;4165708;28;20457;-75
2023/02/02 03:28:55;;;;;;;13.60;1.60;;;2.70;99.90;;;;;;4152449;28;20566;-76
2023/02/02 03:31:00;;;;;;;7.17;1.50;;;2.80;99.90;;;;;;4155977;28;20529;-76
2023/02/02 03:33:02;;;;;;;11.73;2.60;;;2.80;99.90;;;;;;4157836;28;20996;-75
2023/02/02 03:35:06;;;;;;;9.27;1.60;;;2.80;99.90;;;;;;4153619;28;20485;-75
2023/02/02 03:37:08;;;;;;;12.77;1.57;;;2.80;99.90;;;;;;4149153;28;20457;-76
2023/02/02 03:39:10;;;;;;;8.57;1.63;;;2.80;99.90;;;;;;4166932;28;20495;-76
2023/02/02 03:41:12;;;;;;;9.77;1.83;;;2.80;99.90;;;;;;4150160;28;20960;-75
2023/02/02 03:43:20;;;;;;;15.70;3.00;;;2.80;99.90;;;;;;4153644;28;20995;-75
2023/02/02 03:45:22;;;;;;;13.43;1.87;;;2.80;99.90;;;;;;4153887;28;20484;-76
2023/02/02 03:47:27;;;;;;;11.30;1.70;;;2.80;99.90;;;;;;4153783;28;20461;-76
2023/02/02 03:49:28;;;;;;;11.70;1.77;;;2.80;99.90;;;;;;4149806;28;20484;-76
2023/02/02 03:51:31;;;;;;;12.77;1.20;;;2.80;99.90;;;;;;4146860;28;20951;-75
2023/02/02 03:53:33;;;;;;;14.73;1.90;;;2.80;99.90;;;;;;4166466;28;20615;-76
2023/02/02 03:55:37;;;;;;;10.93;1.60;;;2.80;99.90;;;;;;4154406;28;20554;-76
2023/02/02 03:57:39;;;;;;;14.63;1.57;;;2.80;99.90;;;;;;4152914;28;20478;-76
2023/02/02 03:59:41;;;;;;;12.10;1.63;;;2.90;99.90;;;;;;4151048;28;20490;-76
2023/02/02 04:01:43;;;;;;;17.27;2.70;;;2.90;99.90;;;;;;4152545;28;20486;-76
2023/02/02 04:03:45;;;;;;;10.80;1.70;;;2.90;99.90;;;;;;4152934;28;21019;-76
2023/02/02 04:05:50;;;;;;;22.23;2.17;;;2.80;99.90;;;;;;4150558;28;20568;-76
2023/02/02 04:07:53;;;;;;;8.70;1.70;;;2.90;99.90;;;;;;4169867;28;20500;-75
2023/02/02 04:09:55;;;;;;;14.63;2.23;;;2.90;99.90;;;;;;4150588;28;20532;-75
2023/02/02 04:11:57;;;;;;;15.27;2.13;;;2.80;99.90;;;;;;4154106;28;20458;-76
2023/02/02 04:13:58;;;;;;;14.93;1.77;;;2.80;99.90;;;;;;4154195;28;21655;-75
2023/02/02 04:16:01;;;;;;;11.23;1.90;;;2.80;99.90;;;;;;4157399;28;20461;-76
2023/02/02 04:18:03;;;;;;;17.20;1.90;;;2.80;99.90;;;;;;4152946;28;20576;-76
2023/02/02 04:20:06;;;;;;;8.57;1.60;;;2.70;99.90;;;;;;4159355;28;20527;-75
2023/02/02 04:22:08;;;;;;;14.90;2.40;;;2.70;99.90;;;;;;4153960;28;20536;-76
2023/02/02 04:24:15;;;;;;;8.47;1.43;;;2.70;99.90;;;;;;4153418;28;20544;-75
2023/02/02 04:26:17;;;;;;;9.77;1.77;;;2.70;99.90;;;;;;4153553;28;20476;-76
2023/02/02 04:28:19;;;;;;;16.80;1.70;;;2.70;99.90;;;;;;4157832;28;20951;-76
2023/02/02 04:30:21;;;;;;;7.47;1.30;;;2.70;99.90;;;;;;4156432;28;20553;-76
2023/02/02 04:32:23;;;;;;;11.57;1.70;;;3.00;99.90;;;;;;4158151;28;20493;-76
2023/02/02 04:34:25;;;;;;;13.27;2.67;;;2.70;99.90;;;;;;4157508;28;20545;-76
2023/02/02 04:36:27;;;;;;;6.93;1.40;;;2.70;99.90;;;;;;4157230;28;21067;-75
2023/02/02 04:38:29;;;;;;;11.90;2.00;;;2.80;99.90;;;;;;4149980;28;20480;-76
2023/02/02 04:40:32;;;;;;;10.03;1.70;;;2.70;99.90;;;;;;4156311;28;20580;-76
2023/02/02 04:42:34;;;;;;;13.90;1.93;;;2.70;99.90;;;;;;4152481;28;20496;-75
2023/02/02 04:44:36;;;;;;;12.10;1.67;;;2.70;99.90;;;;;;4155842;28;20492;-75
2023/02/02 04:46:37;;;;;;;9.70;1.70;;;2.80;99.90;;;;;;4157200;28;20553;-77
2023/02/02 04:48:40;;;;;;;19.30;2.40;;;2.70;99.90;;;;;;4153377;28;20592;-76
2023/02/02 04:50:42;;;;;;;14.53;1.90;;;2.80;99.90;;;;;;4152721;28;20457;-76
2023/02/02 04:52:43;;;;;;;11.73;2.40;;;2.80;99.90;;;;;;4154401;28;20542;-76
2023/02/02 04:54:45;;;;;;;15.00;2.00;;;2.80;99.90;;;;;;4153237;28;20541;-76
2023/02/02 04:56:49;;;;;;;25.97;2.43;;;2.70;99.90;;;;;;4156387;28;20539;-76
2023/02/02 04:58:53;;;;;;;12.23;2.00;;;2.80;99.90;;;;;;4152561;28;20506;-75
2023/02/02 05:00:55;;;;;;;6.80;1.13;;;2.80;99.90;;;;;;4158078;28;20884;-76
2023/02/02 05:02:57;;;;;;;13.03;2.03;;;2.80;99.90;;;;;;4150772;28;20467;-75
2023/02/02 05:04:59;;;;;;;10.27;1.60;;;2.70;99.90;;;;;;4155853;28;20539;-75
2023/02/02 05:07:01;;;;;;;15.07;1.93;;;2.70;99.90;;;;;;4153166;28;20494;-75
2023/02/02 05:09:03;;;;;;;11.83;1.57;;;2.70;99.90;;;;;;4156781;28;20458;-76
2023/02/02 05:11:08;;;;;;;8.83;1.60;;;2.70;99.90;;;;;;4156217;28;20554;-76
2023/02/02 05:13:12;;;;;;;11.53;1.47;;;2.70;99.90;;;;;;4155398;28;20808;-76
2023/02/02 05:15:13;;;;;;;11.80;1.70;;;2.70;99.90;;;;;;4155118;28;20836;-76
2023/02/02 05:17:15;;;;;;;17.63;2.33;;;2.70;99.90;;;;;;4165326;28;21029;-75
2023/02/02 05:19:17;;;;;;;11.97;1.90;;;2.70;99.90;;;;;;4153166;28;21007;-75
2023/02/02 05:21:19;;;;;;;18.20;2.10;;;2.60;99.90;;;;;;4150523;28;20466;-75
2023/02/02 05:23:21;;;;;;;13.47;1.60;;;2.60;99.90;;;;;;4151892;28;20462;-76
2023/02/02 05:25:23;;;;;;;12.73;1.27;;;2.60;99.90;;;;;;4153614;28;20469;-76
2023/02/02 05:27:25;;;;;;;7.07;1.40;;;2.60;99.90;;;;;;4154432;28;20474;-76
2023/02/02 05:29:29;;;;;;;12.27;2.00;;;2.60;99.90;;;;;;4149746;28;20463;-76
2023/02/02 05:31:31;;;;;;;14.90;1.80;;;2.60;99.90;;;;;;4167053;28;20484;-76
2023/02/02 05:33:33;;;;;;;10.17;1.60;;;2.60;99.90;;;;;;4151879;28;20450;-76
2023/02/02 05:35:34;;;;;;;9.57;2.00;;;2.60;99.90;;;;;;4154491;28;21027;-75
2023/02/02 05:37:36;;;;;;;12.57;1.70;;;2.60;99.90;;;;;;4151248;28;20587;-75
2023/02/02 05:39:38;;;;;;;11.60;1.60;;;2.60;99.90;;;;;;4151725;28;20536;-76
2023/02/02 05:41:40;;;;;;;11.67;1.43;;;2.60;99.90;;;;;;4168568;28;20449;-75
2023/02/02 05:43:45;;;;;;;13.10;1.60;;;2.60;99.90;;;;;;4154284;28;20445;-75
2023/02/02 05:45:48;;;;;;;12.77;2.13;;;2.60;99.90;;;;;;4153931;28;20497;-76
2023/02/02 05:47:53;;;;;;;14.80;1.77;;;2.60;99.90;;;;;;4151822;28;20569;-76
2023/02/02 05:49:55;;;;;;;13.60;2.20;;;2.50;99.90;;;;;;4146720;28;20794;-75
2023/02/02 05:51:58;;;;;;;11.03;2.30;;;2.50;99.90;;;;;;4149951;28;20826;-75
2023/02/02 05:54:00;;;;;;;15.60;2.13;;;2.50;99.90;;;;;;4150211;28;20460;-76
2023/02/02 05:56:02;;;;;;;7.43;1.67;;;2.50;99.90;;;;;;4150386;28;20454;-75
2023/02/02 05:58:04;;;;;;;13.50;2.13;;;2.50;99.90;;;;;;4150102;28;20512;-76
2023/02/02 06:00:07;;;;;;;8.97;1.50;;;2.50;99.90;;;;;;4149676;28;20584;-75
2023/02/02 06:02:11;;;;;;;15.33;1.87;;;2.50;99.90;;;;;;4151331;28;20468;-75
2023/02/02 06:04:13;;;;;;;18.57;2.27;;;2.60;99.90;;;;;;4148558;28;20988;-75
2023/02/02 06:06:15;;;;;;;18.87;2.63;;;2.70;99.90;;;;;;4149218;28;20490;-76
2023/02/02 06:08:17;;;;;;;14.77;2.23;;;2.70;99.90;;;;;;4147101;28;20486;-75
2023/02/02 06:10:19;;;;;;;12.20;2.03;;;2.80;99.90;;;;;;4156083;28;20521;-78
2023/02/02 06:12:21;;;;;;;14.93;2.43;;;2.90;99.90;;;;;;4150580;28;20552;-76
2023/02/02 06:14:23;;;;;;;11.17;2.20;;;2.90;99.90;;;;;;4148623;28;20462;-76
2023/02/02 06:16:25;;;;;;;16.83;2.30;;;2.90;99.90;;;;;;4150533;28;20550;-76
2023/02/02 06:18:28;;;;;;;14.80;2.73;;;3.00;99.90;;;;;;4152246;28;21010;-76
2023/02/02 06:20:30;;;;;;;18.40;2.37;;;3.00;99.90;;;;;;4152585;28;20521;-76
2023/02/02 06:22:32;;;;;;;16.30;2.80;;;3.10;99.90;;;;;;4149249;28;20991;-76
2023/02/02 06:24:34;;;;;;;18.57;2.63;;;3.10;99.90;;;;;;4152577;28;20488;-76
2023/02/02 06:26:36;;;;;;;24.13;4.50;;;3.10;99.90;;;;;;4154391;28;20489;-76
2023/02/02 06:28:38;;;;;;;17.70;2.60;;;3.10;99.90;;;;;;4150578;28;20466;-76
2023/02/02 06:30:40;;;;;;;13.83;3.20;;;3.20;99.90;;;;;;4149955;28;20451;-76
2023/02/02 06:32:42;;;;;;;21.73;4.40;;;3.20;99.90;;;;;;4152671;28;20491;-76
2023/02/02 06:34:45;;;;;;;20.47;3.70;;;3.10;99.90;;;;;;4150837;28;20453;-76
2023/02/02 06:36:47;;;;;;;20.80;3.70;;;3.10;99.90;;;;;;4147660;28;20541;-75
2023/02/02 06:38:50;;;;;;;19.97;3.40;;;3.10;99.90;;;;;;4148497;28;20461;-76
2023/02/02 06:40:52;;;;;;;12.17;2.93;;;3.10;99.90;;;;;;4150875;28;20479;-75
2023/02/02 06:42:57;;;;;;;17.80;3.67;;;3.10;99.90;;;;;;4155247;28;20462;-76
2023/02/02 06:44:59;;;;;;;14.90;2.63;;;3.10;99.90;;;;;;4155311;28;21002;-76
2023/02/02 06:47:01;;;;;;;19.20;2.63;;;3.10;99.90;;;;;;4154895;28;20462;-76
2023/02/02 06:49:03;;;;;;;22.73;3.40;;;3.10;99.90;;;;;;4154054;28;20490;-76
2023/02/02 06:51:07;;;;;;;12.30;2.50;;;3.10;99.90;;;;;;4157451;28;20454;-76
2023/02/02 06:53:09;;;;;;;23.60;2.80;;;3.10;99.90;;;;;;4150488;28;20461;-76
2023/02/02 06:55:11;;;;;;;20.03;2.80;;;3.20;99.90;;;;;;4156530;28;20701;-76
2023/02/02 06:57:12;;;;;;;15.00;2.33;;;3.20;99.90;;;;;;4150623;28;20486;-77
2023/02/02 06:59:14;;;;;;;9.00;2.50;;;3.20;99.90;;;;;;4153620;28;20459;-78
2023/02/02 07:01:16;;;;;;;19.47;3.67;;;3.30;99.90;;;;;;4152954;28;20604;-75
2023/02/02 07:03:20;;;;;;;19.40;3.53;;;3.20;99.90;;;;;;4151436;28;20521;-76
2023/02/02 07:05:22;;;;;;;17.87;3.03;;;3.20;99.90;;;;;;4153979;28;20465;-76
2023/02/02 07:07:26;;;;;;;16.93;2.40;;;3.20;99.90;;;;;;4152153;28;20549;-76
2023/02/02 07:09:31;;;;;;;15.17;2.37;;;3.30;99.90;;;;;;4155085;28;20997;-76
2023/02/02 07:11:34;;;;;;;10.50;2.10;;;3.40;99.90;;;;;;4155498;28;20478;-76
2023/02/02 07:13:36;;;;;;;23.10;3.03;;;3.40;99.90;;;;;;4151213;28;20449;-77
2023/02/02 07:15:38;;;;;;;15.90;2.77;;;3.30;99.90;;;;;;4155106;28;20458;-77
2023/02/02 07:17:41;;;;;;;14.53;2.00;;;3.40;99.90;;;;;;4155167;28;21013;-77
2023/02/02 07:19:43;;;;;;;15.17;1.77;;;3.40;99.90;;;;;;4150878;28;21198;-77
2023/02/02 07:21:44;;;;;;;17.27;2.30;;;3.50;99.90;;;;;;4151942;28;20550;-78
2023/02/02 07:23:48;;;;;;;11.83;1.93;;;3.50;99.90;;;;;;4149462;28;20537;-77
2023/02/02 07:26:00;;;;;;;9.37;2.20;;;3.50;99.90;;;;;;4148484;28;20488;-78
2023/02/02 07:28:02;;;;;;;14.67;1.47;;;3.60;99.90;;;;;;4149050;28;21519;-78
2023/02/02 07:30:04;;;;;;;12.90;1.80;;;3.60;99.90;;;;;;4148410;28;20458;-78
2023/02/02 07:32:06;;;;;;;14.17;2.03;;;3.60;99.90;;;;;;4151446;28;20453;-77
2023/02/02 07:34:08;;;;;;;14.37;1.83;;;3.60;99.90;;;;;;4149856;28;20461;-79
2023/02/02 07:36:11;;;;;;;9.73;1.77;;;3.60;99.90;;;;;;4148340;28;20455;-78
2023/02/02 07:38:13;;;;;;;14.67;1.80;;;3.60;99.90;;;;;;4148192;28;20509;-80
2023/02/02 07:40:16;;;;;;;20.67;2.70;;;3.60;99.90;;;;;;4154584;28;20481;-79
2023/02/02 07:42:18;;;;;;;10.13;1.70;;;3.70;99.90;;;;;;4156072;28;20452;-80
2023/02/02 07:44:20;;;;;;;14.37;1.90;;;3.70;99.90;;;;;;4155701;28;20450;-79
2023/02/02 07:46:24;;;;;;;28.33;2.47;;;3.80;99.90;;;;;;4152834;28;20512;-80
2023/02/02 07:48:26;;;;;;;13.63;2.30;;;3.80;99.90;;;;;;4154679;28;20478;-79
2023/02/02 07:50:29;;;;;;;11.03;1.93;;;3.80;99.90;;;;;;4158834;28;20451;-79
2023/02/02 07:52:31;;;;;;;13.00;1.80;;;3.80;99.90;;;;;;4157671;28;20441;-80
2023/02/02 07:54:33;;;;;;;9.07;1.60;;;3.90;99.90;;;;;;4156753;28;20462;-79
2023/02/02 07:56:38;;;;;;;10.73;2.33;;;4.10;99.90;;;;;;4153274;28;20485;-78
2023/02/02 07:58:41;;;;;;;11.17;1.87;;;4.00;99.90;;;;;;4157219;28;20475;-79
2023/02/02 08:00:43;;;;;;;17.23;2.30;;;4.00;99.90;;;;;;4165291;28;20485;-79
2023/02/02 08:02:48;;;;;;;16.97;2.07;;;4.00;99.90;;;;;;4159816;28;20556;-79
2023/02/02 08:04:50;;;;;;;17.30;1.73;;;4.00;99.90;;;;;;4157527;28;20458;-79
2023/02/02 08:06:52;;;;;;;15.73;1.73;;;4.00;99.90;;;;;;4159458;28;20459;-79
2023/02/02 08:08:54;;;;;;;11.20;1.93;;;4.10;99.90;;;;;;4158401;28;20467;-81
2023/02/02 08:10:58;;;;;;;19.37;2.87;;;4.10;99.90;;;;;;4169229;28;20484;-82
2023/02/02 08:13:01;;;;;;;21.67;2.70;;;4.10;99.90;;;;;;4169286;28;20470;-82
2023/02/02 08:15:04;;;;;;;14.50;1.70;;;4.10;99.90;;;;;;4164232;28;20450;-81
2023/02/02 08:17:06;;;;;;;9.20;2.03;;;4.10;99.90;;;;;;4158536;28;20817;-81
2023/02/02 08:19:10;;;;;;;10.03;1.30;;;4.10;99.90;;;;;;4161468;28;20514;-79
2023/02/02 08:21:12;;;;;;;11.67;1.73;;;4.10;99.90;;;;;;4162807;28;20478;-80
2023/02/02 08:23:15;;;;;;;16.53;2.10;;;4.10;99.90;;;;;;4155943;28;20481;-79
2023/02/02 08:25:17;;;;;;;12.67;2.20;;;4.10;99.90;;;;;;4159696;28;20450;-80
2023/02/02 08:27:19;;;;;;;10.53;1.93;;;4.10;99.90;;;;;;4158293;28;20445;-80
2023/02/02 08:29:22;;;;;;;13.93;2.00;;;4.10;99.90;;;;;;4157982;28;21318;-80
2023/02/02 08:31:28;;;;;;;14.50;2.30;;;4.10;99.90;;;;;;4164047;28;20451;-80
2023/02/02 08:33:30;;;;;;;12.90;2.20;;;4.10;99.90;;;;;;4163633;28;20906;-80
2023/02/02 08:35:32;;;;;;;19.90;3.47;;;4.10;99.90;;;;;;4163416;28;20472;-80
2023/02/02 08:37:34;;;;;;;11.83;2.77;;;4.10;99.90;;;;;;4162442;28;20494;-80
2023/02/02 08:39:36;;;;;;;15.17;2.30;;;4.10;99.90;;;;;;4158966;28;20461;-80
2023/02/02 08:41:38;;;;;;;17.77;2.30;;;4.10;99.90;;;;;;4162061;28;20561;-81
2023/02/02 08:43:40;;;;;;;14.40;2.30;;;4.10;99.90;;;;;;4158702;28;20458;-81
2023/02/02 08:45:44;;;;;;;15.70;2.20;;;4.20;99.90;;;;;;4159894;28;20877;-80
2023/02/02 08:47:46;;;;;;;14.83;2.17;;;4.20;99.90;;;;;;4162417;28;20525;-80
2023/02/02 08:49:48;;;;;;;11.47;1.50;;;4.20;99.90;;;;;;4167114;28;20481;-80
2023/02/02 08:51:50;;;;;;;12.60;2.10;;;4.20;99.90;;;;;;4165069;28;20453;-80
2023/02/02 08:53:52;;;;;;;12.97;1.90;;;4.30;99.90;;;;;;4170234;28;20460;-80
2023/02/02 08:55:59;;;;;;;13.73;2.33;;;4.30;99.90;;;;;;4170495;28;20497;-81
2023/02/02 08:58:01;;;;;;;10.07;1.90;;;4.30;99.90;;;;;;4168938;28;20554;-80
2023/02/02 09:00:03;;;;;;;11.63;2.10;;;4.30;99.90;;;;;;4165743;28;20490;-80
2023/02/02 09:02:08;;;;;;;13.17;1.90;;;4.40;99.90;;;;;;4161192;28;20524;-79
2023/02/02 09:04:15;;;;;;;10.23;1.47;;;4.40;99.90;;;;;;4159198;28;20485;-79
2023/02/02 09:06:19;;;;;;;12.10;2.60;;;4.40;99.90;;;;;;4161348;28;20479;-81
2023/02/02 09:08:21;;;;;;;13.10;2.00;;;4.40;99.90;;;;;;4160731;28;20471;-80
2023/02/02 09:10:24;;;;;;;7.93;1.90;;;4.40;99.90;;;;;;4156691;28;20472;-80
2023/02/02 09:12:26;;;;;;;15.60;2.00;;;4.50;99.90;;;;;;4165481;28;20453;-78
2023/02/02 09:14:28;;;;;;;12.60;2.27;;;4.50;99.90;;;;;;4159288;28;20862;-78
2023/02/02 09:16:30;;;;;;;15.17;2.10;;;4.50;99.90;;;;;;4160431;28;20978;-80
2023/02/02 09:18:33;;;;;;;10.53;1.70;;;4.50;99.90;;;;;;4157895;28;20480;-79
2023/02/02 09:20:36;;;;;;;12.10;2.03;;;4.60;99.90;;;;;;4174292;28;20478;-80
2023/02/02 09:22:38;;;;;;;11.40;1.90;;;4.60;99.90;;;;;;4161168;28;20459;-80
2023/02/02 09:24:40;;;;;;;12.67;2.23;;;4.90;99.90;;;;;;4160781;28;20522;-80
2023/02/02 09:26:43;;;;;;;12.40;2.00;;;4.70;99.90;;;;;;4154869;28;20957;-79
2023/02/02 09:28:48;;;;;;;16.73;1.90;;;4.70;99.90;;;;;;4162163;28;20988;-79
2023/02/02 09:30:50;;;;;;;8.20;1.80;;;4.80;99.90;;;;;;4155577;28;20450;-79
2023/02/02 09:32:52;;;;;;;18.27;3.30;;;4.80;99.90;;;;;;4158853;28;20473;-80
2023/02/02 09:34:59;;;;;;;21.10;2.77;;;4.80;99.90;;;;;;4160999;28;20455;-79
2023/02/02 09:37:02;;;;;;;11.07;2.47;;;4.90;99.90;;;;;;4157388;28;20447;-79
2023/02/02 09:39:05;;;;;;;15.07;2.67;;;4.90;99.90;;;;;;4158770;28;20499;-81
2023/02/02 09:41:37;;;;;;;10.43;2.03;;;4.90;99.90;;;;;;4162677;28;20479;-80
2023/02/02 09:43:48;;;;;;;11.53;1.97;;;5.00;99.90;;;;;;4160637;28;20504;-79
2023/02/02 09:46:01;;;;;;;12.63;2.07;;;5.10;99.90;;;;;;4179201;28;20486;-79
2023/02/02 09:48:24;;;;;;;15.90;2.67;;;5.10;99.90;;;;;;4165916;28;20478;-79
2023/02/02 09:50:38;;;;;;;11.47;2.20;;;5.20;99.90;;;;;;4161010;28;20459;-80
2023/02/02 09:52:43;;;;;;;13.10;2.13;;;5.50;99.90;;;;;;4162188;28;20473;-80
2023/02/02 09:54:48;;;;;;;12.37;2.30;;;5.20;99.90;;;;;;4162184;28;20447;-78
2023/02/02 09:56:56;;;;;;;12.50;3.13;;;5.30;99.90;;;;;;4160050;28;20859;-79
2023/02/02 09:59:01;;;;;;;15.97;2.13;;;5.20;99.90;;;;;;4171279;28;20536;-80
2023/02/02 10:01:07;;;;;;;14.53;2.50;;;5.30;99.90;;;;;;4166181;28;21012;-80
2023/02/02 10:03:16;;;;;;;22.73;2.50;;;5.30;99.90;;;;;;4152736;28;21068;-78
2023/02/02 10:05:24;;;;;;;17.30;2.17;;;5.40;99.90;;;;;;4160120;28;20454;-80
2023/02/02 10:07:35;;;;;;;11.83;2.10;;;5.40;99.90;;;;;;4163392;28;20471;-80
2023/02/02 10:09:43;;;;;;;19.50;2.63;;;5.40;99.90;;;;;;4177458;28;20851;-81
2023/02/02 10:11:50;;;;;;;14.73;2.50;;;5.40;99.90;;;;;;4164579;28;20459;-81
2023/02/02 10:13:56;;;;;;;17.20;2.57;;;5.50;99.90;;;;;;4162616;28;20518;-81
2023/02/02 10:16:04;;;;;;;17.10;2.67;;;5.70;99.90;;;;;;4161913;28;21052;-80
2023/02/02 10:18:12;;;;;;;15.47;2.17;;;5.40;99.90;;;;;;4155361;28;20483;-80
2023/02/02 10:20:38;;;;;;;18.00;2.43;;;5.60;99.90;;;;;;4156586;28;20543;-81
2023/02/02 10:22:42;;;;;;;15.00;2.00;;;5.60;99.90;;;;;;4155469;28;20448;-80
2023/02/02 10:24:44;;;;;;;15.47;2.13;;;5.70;99.90;;;;;;4162644;28;20473;-80
2023/02/02 10:26:48;;;;;;;20.20;3.10;;;5.80;99.90;;;;;;4159985;28;20845;-81
2023/02/02 10:29:08;;;;;;;15.10;1.97;;;5.80;99.90;;;;;;4161728;28;20494;-80
2023/02/02 10:31:19;;;;;;;14.83;2.13;;;5.80;99.90;;;;;;4171789;28;20460;-80
2023/02/02 10:33:33;;;;;;;11.27;2.10;;;5.90;99.90;;;;;;4176001;28;20463;-80
2023/02/02 10:35:44;;;;;;;16.97;2.73;;;5.80;99.90;;;;;;4160544;28;20552;-80
2023/02/02 10:37:55;;;;;;;14.23;2.40;;;5.90;99.90;;;;;;4165438;28;20472;-80
2023/02/02 10:40:10;;;;;;;22.87;2.30;;;5.90;99.90;;;;;;4164719;28;20994;-77
2023/02/02 10:42:22;;;;;;;15.47;2.40;;;6.00;99.90;;;;;;4170618;28;20472;-79
2023/02/02 10:44:34;;;;;;;16.53;2.47;;;6.00;99.90;;;;;;4160915;28;21316;-78
2023/02/02 10:46:40;;;;;;;9.80;2.17;;;6.00;99.90;;;;;;4163830;28;20523;-79
2023/02/02 10:48:45;;;;;;;24.30;3.23;;;6.00;99.90;;;;;;4153901;28;20497;-78
2023/02/02 10:50:51;;;;;;;15.03;2.30;;;6.00;99.90;;;;;;4153515;28;20819;-79
2023/02/02 10:53:00;;;;;;;13.03;2.20;;;6.00;99.90;;;;;;4153344;28;20445;-78
2023/02/02 10:55:05;;;;;;;13.17;2.20;;;6.10;99.90;;;;;;4158233;28;20463;-79
2023/02/02 10:57:11;;;;;;;13.30;1.87;;;6.00;99.90;;;;;;4155189;28;20479;-79
2023/02/02 10:59:19;;;;;;;18.23;2.47;;;6.00;99.90;;;;;;4156561;28;20507;-79
2023/02/02 11:01:21;;;;;;;16.20;2.27;;;5.90;99.90;;;;;;4151723;28;20563;-79
2023/02/02 11:03:27;;;;;;;13.50;2.30;;;6.00;99.90;;;;;;4152969;28;20454;-79
2023/02/02 11:07:51;;;;;;;14.23;2.47;;;6.00;99.90;;;;;;4156053;28;20469;-79
2023/02/02 11:09:54;;;;;;;12.40;1.70;;;6.00;99.90;;;;;;4160072;28;20461;-79
2023/02/02 11:12:00;;;;;;;16.17;2.20;;;6.00;99.90;;;;;;4154774;28;20472;-79
2023/02/02 11:14:11;;;;;;;11.53;2.63;;;5.90;99.90;;;;;;4160307;28;20535;-79
2023/02/02 11:16:26;;;;;;;16.30;2.50;;;6.00;99.90;;;;;;4150884;28;20475;-79
2023/02/02 11:18:30;;;;;;;12.43;2.00;;;5.90;99.90;;;;;;4151905;28;20500;-79
2023/02/02 11:20:36;;;;;;;12.23;2.33;;;5.90;99.90;;;;;;4156439;28;20475;-79